INFORMACIÓN METAR y TAF
METAR FOR LFRS
ADDS - METARS form results

(1738 UTC 28 May 2020)
Data provider http://aviationweather.gov/metar/data/
 
METAR text: LFRS 281730Z AUTO 09010KT 030V120 CAVOK 26/10 Q1023 NOSIG
Conditions at: LFRS (NANTES/CHATEAU B, FR) observed 1730 UTC 28 May 2020
Temperature: 26.0°C (79°F)
Dewpoint: 10.0°C (50°F) [RH = 37%]
Pressure (altimeter): 30.21 inches Hg (1023.0 mb)
Winds: from the E (90 degrees) at 12 MPH (10 knots; 5.1 m/s)
Visibility: 6 or more miles (10+ km)
Ceiling: ceiling and visibility are OK
Clouds: unknown
Weather: no significant weather observed at this time

METAR text: LFRS 281700Z AUTO 09012KT CAVOK 27/11 Q1023 NOSIG
Conditions at: LFRS (NANTES/CHATEAU B, FR) observed 1700 UTC 28 May 2020
Temperature: 27.0°C (81°F)
Dewpoint: 11.0°C (52°F) [RH = 37%]
Pressure (altimeter): 30.21 inches Hg (1023.0 mb)
Winds: from the E (90 degrees) at 14 MPH (12 knots; 6.2 m/s)
Visibility: 6 or more miles (10+ km)
Ceiling: ceiling and visibility are OK
Clouds: unknown
Weather: no significant weather observed at this time

Forecast for: LFRS (NANTES/CHATEAU B, FR)
Text: TAF LFRS 281700Z 2818/2924 05010KT CAVOK
Forecast period: 1800 UTC 28 May 2020 to 0000 UTC 30 May 2020
Forecast type: FROM: standard forecast or significant change
Winds: from the NE (50 degrees) at 12 MPH (10 knots; 5.1 m/s)
Visibility: 6 or more miles 10+ km)
Ceiling: unknown
Clouds: missing
Weather: NSW  (no significant weather)

 MAPA DE AEROPUERTO

 INFORMACIÓN DE PISTA
Pista 03 Longitud 9514 ft Ancho 148 ft
Elevación 73 ft Umbral desplazado 0 ft Rumbo de pista 28
Pista 21 Longitud 9514 ft Ancho 148 ft
Elevación 86 ft Umbral desplazado 694 ft Rumbo de pista 208

 FRECUANCIAS DEL AEROPUERTO
Tipo APP Nombre APP Frecuencia 130.275 MHZ
Tipo ATIS Nombre ATIS Frecuencia 126.925 MHZ
Tipo GND Nombre GND Frecuencia 121.875 MHZ
Tipo INFO Nombre INFO Frecuencia 129.875 MHZ
Tipo TWR Nombre TWR Frecuencia 118.65 MHZ

 RADIO AYUDAS DEL AEROPUERTO
Tipo NDB Nombre Nantes Frecuencia 369 KHZ
Tipo VOR-DME Nombre Nantes Frecuencia 115500 KHZ